Tomahawk, Wisconsin
Current Conditions -  °F | °C
As of 11:35 PM on Sunday 21 Dec 2014 (Local Time) from KTKV Reporting Station
Light Rain Light Rain  
Wind Chill: 26°   Ceiling: 500
Heat Index: 32°   Visibility: 2.5mi
Dew Point: 32°   Wind: 6mph
Humidity: 99%   Direction: 170°S
Pressure: 29.84"   Gusts: NA
Location:  45.47°N, 89.73°W
Report Text: KTKV 220535Z AUTO 17005KT 2 1/2SM -RA OVC005 00/00 A2984 RMK AO2 T00001002
Loading
Personal Weather Stations






























Interactive Weather Map New forecast layout! Learn more

10-Day Weather Forecast

Advertisements
Track Severe Weather on mobile